createdAt,value
2022-12-03T00:01:25.694Z,13.65
2022-12-03T00:06:19.850Z,11.75
2022-12-03T00:11:13.336Z,11.95
2022-12-03T00:16:07.597Z,12.38
2022-12-03T00:21:01.612Z,11.32
2022-12-03T00:25:55.760Z,12.00
2022-12-03T00:30:50.433Z,10.65
2022-12-03T00:35:44.127Z,11.63
2022-12-03T00:40:38.288Z,11.32
2022-12-03T00:45:31.994Z,11.27
2022-12-03T00:50:26.079Z,11.35
2022-12-03T00:55:19.940Z,11.35
2022-12-03T01:00:16.323Z,10.05
2022-12-03T01:05:11.803Z,10.80
2022-12-03T01:10:08.154Z,9.93
2022-12-03T01:15:02.446Z,10.90
2022-12-03T01:19:56.510Z,9.40
2022-12-03T01:24:51.052Z,10.05
2022-12-03T01:29:45.174Z,11.60
2022-12-03T01:34:40.669Z,11.82
2022-12-03T01:39:39.129Z,10.98
2022-12-03T01:44:36.822Z,13.05
2022-12-03T01:49:43.675Z,17.70
2022-12-03T01:54:41.220Z,15.00
2022-12-03T01:59:38.211Z,11.32
2022-12-03T02:04:34.607Z,10.95
2022-12-03T02:09:30.536Z,9.07
2022-12-03T02:14:27.077Z,10.15
2022-12-03T02:19:30.227Z,9.95
2022-12-03T02:25:15.819Z,10.50
2022-12-03T02:30:14.180Z,10.07
2022-12-03T02:40:16.038Z,9.57
2022-12-03T02:45:18.483Z,10.57
2022-12-03T02:50:13.621Z,10.57
2022-12-03T02:55:07.571Z,11.32
2022-12-03T03:00:01.623Z,10.52
2022-12-03T03:04:56.420Z,10.15
2022-12-03T03:09:50.371Z,9.57
2022-12-03T03:14:44.561Z,9.38
2022-12-03T03:19:38.762Z,11.27
2022-12-03T03:24:31.856Z,9.63
2022-12-03T03:29:25.334Z,10.45
2022-12-03T03:34:19.316Z,10.43
2022-12-03T03:39:12.696Z,10.82
2022-12-03T03:44:07.470Z,9.70
2022-12-03T03:49:01.916Z,10.55
2022-12-03T03:53:56.465Z,9.77
2022-12-03T03:58:50.077Z,10.40
2022-12-03T04:03:44.536Z,10.20
2022-12-03T04:08:38.291Z,10.60
2022-12-03T04:13:32.099Z,10.77
2022-12-03T04:18:43.533Z,9.82
2022-12-03T04:23:37.148Z,10.32
2022-12-03T04:28:49.619Z,11.00
2022-12-03T04:34:21.229Z,10.13
2022-12-03T04:39:14.992Z,10.82
2022-12-03T04:44:26.541Z,11.38
2022-12-03T04:49:20.509Z,12.07
2022-12-03T04:54:13.600Z,11.07
2022-12-03T04:59:11.318Z,11.57
2022-12-03T05:04:07.481Z,12.02
2022-12-03T05:09:01.444Z,11.20
2022-12-03T05:13:55.392Z,11.45
2022-12-03T05:18:49.750Z,12.27
2022-12-03T05:23:43.031Z,11.55
2022-12-03T05:28:36.686Z,13.15
2022-12-03T05:33:30.583Z,12.70
2022-12-03T05:38:24.401Z,11.85
2022-12-03T05:43:18.143Z,13.38
2022-12-03T05:48:12.997Z,13.00
2022-12-03T05:53:06.363Z,12.63
2022-12-03T05:57:59.598Z,13.02
2022-12-03T06:02:53.358Z,12.15
2022-12-03T06:07:48.076Z,12.65
2022-12-03T06:12:42.082Z,13.35
2022-12-03T06:17:36.318Z,12.77
2022-12-03T06:22:30.241Z,12.23
2022-12-03T06:27:24.654Z,13.50
2022-12-03T06:32:18.660Z,13.25
2022-12-03T06:37:11.954Z,13.45
2022-12-03T06:42:06.173Z,13.20
2022-12-03T06:47:00.107Z,15.05
2022-12-03T06:51:53.739Z,15.23
2022-12-03T06:56:47.726Z,15.30
2022-12-03T07:01:40.890Z,16.38
2022-12-03T07:06:34.752Z,14.32
2022-12-03T07:11:33.885Z,12.88
2022-12-03T07:16:27.510Z,14.57
2022-12-03T07:21:21.457Z,12.68
2022-12-03T07:26:14.881Z,11.90
2022-12-03T07:31:08.427Z,13.32
2022-12-03T07:36:02.503Z,14.60
2022-12-03T07:40:56.499Z,14.05
2022-12-03T07:45:50.972Z,12.95
2022-12-03T07:50:44.684Z,14.30
2022-12-03T07:55:38.414Z,15.57
2022-12-03T08:00:32.206Z,15.20
2022-12-03T08:05:27.599Z,14.00
2022-12-03T08:10:21.578Z,14.45
2022-12-03T08:15:21.761Z,16.77
2022-12-03T08:20:23.215Z,18.10
2022-12-03T08:25:27.460Z,17.48
2022-12-03T08:30:21.402Z,22.30
2022-12-03T08:35:33.897Z,16.10
2022-12-03T08:40:40.642Z,14.73
2022-12-03T08:45:40.509Z,23.42
2022-12-03T08:51:14.036Z,17.00
2022-12-03T08:56:41.010Z,41.33
2022-12-03T09:01:44.341Z,25.23
2022-12-03T09:06:38.477Z,16.80
2022-12-03T09:11:32.459Z,16.45
2022-12-03T09:16:26.937Z,19.63
2022-12-03T09:21:21.066Z,17.85
2022-12-03T09:26:15.005Z,15.05
2022-12-03T09:31:09.394Z,15.20
2022-12-03T09:36:03.328Z,16.27
2022-12-03T09:40:57.646Z,15.60
2022-12-03T09:45:51.202Z,16.63
2022-12-03T09:50:45.447Z,15.95
2022-12-03T09:55:38.992Z,13.45
2022-12-03T10:00:32.293Z,14.27
2022-12-03T10:05:26.108Z,14.50
2022-12-03T10:10:22.534Z,13.57
2022-12-03T10:15:19.413Z,13.25
2022-12-03T10:20:13.977Z,12.75
2022-12-03T10:25:32.506Z,11.88
2022-12-03T10:30:27.534Z,13.82
2022-12-03T10:35:38.745Z,12.52
2022-12-03T10:40:43.687Z,10.82
2022-12-03T10:45:37.357Z,19.23
2022-12-03T10:50:31.346Z,13.10
2022-12-03T10:55:25.221Z,65.82
2022-12-03T11:00:21.081Z,13.27
2022-12-03T11:05:17.935Z,20.85
2022-12-03T11:10:16.874Z,11.25
2022-12-03T11:15:17.850Z,11.47
2022-12-03T11:20:25.815Z,9.70
2022-12-03T11:25:25.185Z,12.10
2022-12-03T11:30:57.473Z,10.82
2022-12-03T11:36:05.214Z,9.45
2022-12-03T11:41:16.223Z,10.43
2022-12-03T11:46:11.054Z,11.27
2022-12-03T11:51:05.451Z,11.48
2022-12-03T11:56:09.277Z,10.30
2022-12-03T12:01:05.659Z,13.25
2022-12-03T12:06:03.059Z,12.20
2022-12-03T12:10:57.086Z,11.90
2022-12-03T12:15:51.403Z,11.73
2022-12-03T12:20:45.280Z,12.52
2022-12-03T12:25:41.024Z,13.05
2022-12-03T12:30:34.417Z,12.45
2022-12-03T12:35:29.914Z,12.77
2022-12-03T12:40:27.888Z,12.07
2022-12-03T12:45:44.838Z,13.15
2022-12-03T12:50:42.656Z,10.40
2022-12-03T12:55:37.073Z,13.03
2022-12-03T13:00:31.329Z,11.90
2022-12-03T13:05:27.878Z,11.77
2022-12-03T13:10:39.922Z,12.20
2022-12-03T13:15:53.253Z,10.98
2022-12-03T13:20:46.674Z,11.70
2022-12-03T13:26:00.567Z,11.60
2022-12-03T13:31:00.927Z,12.65
2022-12-03T13:35:55.795Z,11.70
2022-12-03T13:40:54.705Z,13.95
2022-12-03T13:45:51.149Z,12.10
2022-12-03T13:50:46.661Z,14.73
2022-12-03T13:55:45.714Z,15.20
2022-12-03T14:00:45.441Z,13.43
2022-12-03T14:05:40.407Z,13.57
2022-12-03T14:10:33.309Z,14.32
2022-12-03T14:15:27.598Z,15.40
2022-12-03T14:20:20.931Z,13.68
2022-12-03T14:25:14.422Z,13.77
2022-12-03T14:30:09.782Z,13.52
2022-12-03T14:35:08.300Z,13.40
2022-12-03T14:40:03.912Z,13.82
2022-12-03T14:44:57.495Z,33.50
2022-12-03T14:49:51.922Z,15.45
2022-12-03T14:54:46.162Z,13.60
2022-12-03T14:59:41.123Z,14.63
2022-12-03T15:04:33.851Z,12.63
2022-12-03T15:09:27.915Z,11.43
2022-12-03T15:14:22.024Z,10.88
2022-12-03T15:19:16.728Z,11.23
2022-12-03T15:24:11.261Z,11.82
2022-12-03T15:29:04.494Z,13.88
2022-12-03T15:33:58.287Z,11.23
2022-12-03T15:38:52.299Z,12.32
2022-12-03T15:43:46.476Z,11.52
2022-12-03T15:48:40.186Z,10.30
2022-12-03T15:53:34.095Z,11.15
2022-12-03T15:58:28.061Z,10.80
2022-12-03T16:03:22.565Z,11.35
2022-12-03T16:08:16.633Z,11.07
2022-12-03T16:13:10.550Z,11.38
2022-12-03T16:18:04.349Z,10.68
2022-12-03T16:22:57.934Z,11.00
2022-12-03T16:27:51.934Z,10.98
2022-12-03T16:32:45.485Z,11.65
2022-12-03T16:37:39.333Z,11.45
2022-12-03T16:42:33.199Z,10.50
2022-12-03T16:47:32.101Z,12.30
2022-12-03T16:52:27.082Z,12.48
2022-12-03T16:57:20.506Z,11.27
2022-12-03T17:02:14.733Z,10.75
2022-12-03T17:07:10.190Z,10.57
2022-12-03T17:12:03.623Z,11.32
2022-12-03T17:16:57.625Z,11.32
2022-12-03T17:21:51.549Z,11.50
2022-12-03T17:26:45.728Z,11.30
2022-12-03T17:31:55.088Z,17.88
2022-12-03T17:36:49.552Z,13.85
2022-12-03T17:41:43.697Z,13.25
2022-12-03T17:46:36.656Z,11.88
2022-12-03T17:51:30.675Z,12.57
2022-12-03T17:56:23.920Z,12.98
2022-12-03T18:01:17.941Z,12.27
2022-12-03T18:06:12.301Z,16.67
2022-12-03T18:11:07.456Z,12.85
2022-12-03T18:16:01.482Z,11.85
2022-12-03T18:20:55.630Z,12.55
2022-12-03T18:25:49.294Z,12.13
2022-12-03T18:30:47.532Z,14.15
2022-12-03T18:35:44.396Z,16.17
2022-12-03T18:40:38.387Z,89.75
2022-12-03T18:45:32.508Z,77.70
2022-12-03T18:50:25.946Z,89.55
2022-12-03T18:55:20.803Z,143.93
2022-12-03T19:00:16.550Z,130.68
2022-12-03T19:05:14.868Z,57.38
2022-12-03T19:10:11.731Z,26.23
2022-12-03T19:15:05.909Z,22.92
2022-12-03T19:19:59.890Z,14.80
2022-12-03T19:24:54.253Z,15.88
2022-12-03T19:29:50.465Z,15.23
2022-12-03T19:34:44.034Z,14.10
2022-12-03T19:39:37.726Z,13.90
2022-12-03T19:44:31.267Z,12.52
2022-12-03T19:49:25.187Z,11.95
2022-12-03T19:54:18.960Z,12.75
2022-12-03T19:59:13.711Z,13.55
2022-12-03T20:04:09.198Z,14.80
2022-12-03T20:09:18.326Z,13.52
2022-12-03T20:14:52.148Z,13.68
2022-12-03T20:19:46.578Z,16.23
2022-12-03T20:24:40.623Z,17.63
2022-12-03T20:29:34.509Z,21.13
2022-12-03T20:34:28.180Z,26.13
2022-12-03T20:39:22.242Z,21.25
2022-12-03T20:44:16.109Z,32.42
2022-12-03T20:49:10.194Z,27.13
2022-12-03T20:54:04.405Z,17.90
2022-12-03T20:58:57.903Z,17.88
2022-12-03T21:03:51.475Z,15.80
2022-12-03T21:08:46.027Z,17.77
2022-12-03T21:13:41.826Z,17.23
2022-12-03T21:18:36.341Z,16.42
2022-12-03T21:23:30.977Z,18.05
2022-12-03T21:28:25.935Z,18.20
2022-12-03T21:33:19.668Z,18.08
2022-12-03T21:38:13.697Z,20.00
2022-12-03T21:43:07.842Z,18.50
2022-12-03T21:48:01.842Z,21.27
2022-12-03T21:52:56.272Z,18.10
2022-12-03T21:57:50.796Z,18.63
2022-12-03T22:02:44.835Z,18.95
2022-12-03T22:07:39.414Z,18.73
2022-12-03T22:12:33.345Z,21.70
2022-12-03T22:17:27.821Z,19.63
2022-12-03T22:22:21.481Z,15.82
2022-12-03T22:27:16.348Z,16.63
2022-12-03T22:32:10.453Z,33.30
2022-12-03T22:37:04.879Z,38.67
2022-12-03T22:41:59.406Z,58.05
2022-12-03T22:46:52.626Z,20.05
2022-12-03T22:51:48.654Z,16.77
2022-12-03T22:56:41.247Z,16.27
2022-12-03T23:01:35.978Z,15.07
2022-12-03T23:06:30.157Z,15.23
2022-12-03T23:11:23.811Z,16.17
2022-12-03T23:16:48.980Z,14.25
2022-12-03T23:21:41.775Z,15.52
2022-12-03T23:26:37.925Z,15.40
2022-12-03T23:31:33.533Z,16.60
2022-12-03T23:36:28.489Z,17.52
2022-12-03T23:41:23.738Z,16.80
2022-12-03T23:46:20.353Z,17.42
2022-12-03T23:51:18.021Z,16.90
2022-12-03T23:56:14.383Z,13.27
